createdAt,value
2018-05-27T00:00:02.935Z,14.4
2018-05-27T00:15:03.217Z,14.2
2018-05-27T00:30:02.630Z,14.1
2018-05-27T00:45:02.981Z,14
2018-05-27T01:00:02.266Z,13.6
2018-05-27T01:15:02.553Z,13.8
2018-05-27T01:30:02.959Z,13.5
2018-05-27T01:45:02.299Z,13.4
2018-05-27T02:00:02.566Z,13.6
2018-05-27T02:15:04.307Z,13.3
2018-05-27T02:30:02.687Z,13.2
2018-05-27T02:45:02.972Z,13.3
2018-05-27T03:00:02.371Z,13.2
2018-05-27T03:15:02.575Z,13.1
2018-05-27T03:30:02.957Z,13
2018-05-27T03:45:02.298Z,13.1
2018-05-27T04:00:02.630Z,13.1
2018-05-27T04:15:02.982Z,13.3
2018-05-27T04:30:02.355Z,13.2
2018-05-27T04:45:02.693Z,13.5
2018-05-27T05:00:02.910Z,13.9
2018-05-27T05:15:03.132Z,14
2018-05-27T05:30:02.510Z,14.4
2018-05-27T05:45:02.893Z,14.8
2018-05-27T06:00:03.170Z,15.1
2018-05-27T06:15:02.477Z,15.6
2018-05-27T06:30:03.014Z,16.2
2018-05-27T06:45:02.280Z,16.6
2018-05-27T07:00:02.306Z,17.3
2018-05-27T07:15:02.507Z,18
2018-05-27T07:30:02.790Z,18.6
2018-05-27T07:45:02.995Z,18.7
2018-05-27T08:00:02.268Z,20.2
2018-05-27T08:15:02.486Z,20.9
2018-05-27T08:30:02.824Z,21.6
2018-05-27T08:45:03.049Z,21.9
2018-05-27T09:00:02.318Z,22.9
2018-05-27T09:15:02.576Z,23.6
2018-05-27T09:30:02.896Z,24.1
2018-05-27T09:45:03.232Z,24.6
2018-05-27T10:00:02.712Z,25.1
2018-05-27T10:15:05.959Z,25.2
2018-05-27T10:30:02.790Z,26.6
2018-05-27T10:45:03.085Z,26.2
2018-05-27T11:02:02.428Z,26.9
2018-05-27T11:17:02.680Z,27.8
2018-05-27T11:32:02.922Z,26.7
2018-05-27T11:45:03.185Z,28.9
2018-05-27T12:00:02.409Z,28.6
2018-05-27T12:15:02.702Z,28.9
2018-05-27T12:30:03.104Z,29.3
2018-05-27T12:45:02.405Z,29.1
2018-05-27T13:00:02.621Z,29.5
2018-05-27T13:15:02.880Z,27.1
2018-05-27T13:30:02.308Z,28.3
2018-05-27T13:45:02.758Z,27.5
2018-05-27T14:00:03.109Z,28.4
2018-05-27T14:15:02.665Z,28.6
2018-05-27T14:30:02.957Z,28.4
2018-05-27T14:45:02.278Z,28.2
2018-05-27T15:00:02.486Z,27.6
2018-05-27T15:15:02.693Z,26.9
2018-05-27T15:30:03.080Z,27.6
2018-05-27T15:45:02.309Z,26.8
2018-05-27T16:00:02.538Z,26
2018-05-27T16:15:02.795Z,24.6
2018-05-27T16:30:03.351Z,24.8
2018-05-27T16:45:02.764Z,24.2
2018-05-27T17:00:03.246Z,23.5
2018-05-27T17:15:02.642Z,23.2
2018-05-27T17:30:03.260Z,23.2
2018-05-27T17:45:02.706Z,22.8
2018-05-27T18:00:03.129Z,22.4
2018-05-27T18:15:02.838Z,21.7
2018-05-27T18:30:03.498Z,21.1
2018-05-27T18:45:03.001Z,20.7
2018-05-27T19:00:02.555Z,20.1
2018-05-27T19:15:03.035Z,19.9
2018-05-27T19:30:02.624Z,19.9
2018-05-27T19:45:03.047Z,19.2
2018-05-27T20:00:02.448Z,18.8
2018-05-27T20:15:02.988Z,19.1
2018-05-27T20:30:02.594Z,18.4
2018-05-27T20:45:03.062Z,18.4
2018-05-27T21:00:02.514Z,18.7
2018-05-27T21:15:03.030Z,18.5
2018-05-27T21:30:02.646Z,18.6
2018-05-27T21:45:03.137Z,18.3
2018-05-27T22:00:02.866Z,17.9
2018-05-27T22:15:03.501Z,17.8
2018-05-27T22:30:03.127Z,17.1
2018-05-27T22:45:02.614Z,16.9
2018-05-27T23:00:02.991Z,16.6
2018-05-27T23:15:02.708Z,16.3
2018-05-27T23:30:03.171Z,16
2018-05-27T23:45:02.545Z,15.9
